Time;durP1;ratioP1;P1;durP2;ratioP2;P2;SDS_P1;SDS_P2;PMS_P1;PMS_P2;Temp;Humidity;BMP_temperature;BMP_pressure;BME280_temperature;BME280_humidity;BME280_pressure;Samples;Min_cycle;Max_cycle;Signal;HPM_P1;HPM_P2
2020/12/20 00:01:01;;;;;;;15.38;9.48;;;;;;;0.66;77.10;96218.22;5012070;28;20058;-61
2020/12/20 00:03:27;;;;;;;13.77;9.52;;;;;;;0.73;76.91;96212.66;5014324;28;20555;-61
2020/12/20 00:05:54;;;;;;;15.65;10.30;;;;;;;0.71;76.61;96212.91;5020211;28;20109;-61
2020/12/20 00:08:23;;;;;;;15.48;10.18;;;;;;;0.63;76.40;96210.75;5032002;28;20506;-60
2020/12/20 00:10:49;;;;;;;14.95;9.95;;;;;;;0.56;76.92;96208.34;5017699;28;20056;-60
2020/12/20 00:13:17;;;;;;;13.80;8.88;;;;;;;0.65;76.92;96216.59;5010649;28;20455;-61
2020/12/20 00:15:44;;;;;;;15.55;9.73;;;;;;;0.59;77.22;96213.16;5013504;28;20046;-61
2020/12/20 00:18:11;;;;;;;14.73;10.00;;;;;;;0.83;76.47;96218.00;5020736;28;20049;-61
2020/12/20 00:20:37;;;;;;;16.10;10.63;;;;;;;0.94;76.01;96219.59;5011121;28;20053;-60
2020/12/20 00:23:04;;;;;;;15.65;10.10;;;;;;;1.01;75.57;96219.34;5029257;28;20053;-61
2020/12/20 00:25:30;;;;;;;16.02;10.05;;;;;;;1.13;75.19;96211.91;5031303;28;20065;-60
2020/12/20 00:27:57;;;;;;;15.02;10.05;;;;;;;1.12;74.93;96215.66;5030557;28;20108;-59
2020/12/20 00:30:24;;;;;;;15.43;10.00;;;;;;;1.00;75.32;96210.56;5019856;28;20053;-61
2020/12/20 00:32:51;;;;;;;15.70;10.60;;;;;;;0.94;75.75;96219.59;5022708;28;20056;-57
2020/12/20 00:35:18;;;;;;;16.05;9.90;;;;;;;0.88;75.90;96210.81;5011379;28;20042;-57
2020/12/20 00:37:45;;;;;;;15.07;9.68;;;;;;;0.95;75.84;96209.78;5024897;28;20392;-57
2020/12/20 00:40:12;;;;;;;14.05;9.25;;;;;;;1.07;75.22;96210.31;5035594;28;20128;-57
2020/12/20 00:42:38;;;;;;;16.00;10.48;;;;;;;1.09;75.07;96203.66;5035453;28;20053;-55
2020/12/20 00:45:04;;;;;;;16.63;10.07;;;;;;;0.98;75.69;96209.25;5035570;28;20095;-58
2020/12/20 00:47:34;;;;;;;15.63;10.27;;;;;;;1.05;75.68;96210.59;5032953;28;20046;-57
2020/12/20 00:50:01;;;;;;;14.23;9.75;;;;;;;0.95;75.58;96189.25;5029631;28;20046;-58
2020/12/20 00:52:28;;;;;;;14.90;10.00;;;;;;;1.02;75.74;96189.78;5030470;28;20096;-57
2020/12/20 00:54:58;;;;;;;16.90;10.90;;;;;;;1.10;75.32;96191.13;5033934;28;20057;-58
2020/12/20 00:57:24;;;;;;;14.82;10.05;;;;;;;1.12;75.38;96199.66;5029689;28;20103;-57
2020/12/20 00:59:52;;;;;;;16.42;11.05;;;;;;;1.06;75.44;96208.72;4998137;28;20077;-57
2020/12/20 01:02:19;;;;;;;17.10;10.85;;;;;;;1.05;75.61;96199.94;5020886;28;20389;-57
2020/12/20 01:04:46;;;;;;;16.77;10.82;;;;;;;0.98;75.94;96187.94;5033696;28;20045;-58
2020/12/20 01:07:15;;;;;;;15.80;9.80;;;;;;;1.02;75.37;96200.44;5028935;28;20053;-61
2020/12/20 01:09:48;;;;;;;18.27;11.27;;;;;;;0.88;76.09;96210.81;5020236;28;20058;-61
2020/12/20 01:12:16;;;;;;;18.88;11.35;;;;;;;0.43;77.47;96192.84;5014612;28;20108;-61
2020/12/20 01:15:01;;;;;;;16.23;10.13;;;;;;;0.51;78.04;96210.97;5042173;28;20049;-52
2020/12/20 01:17:28;;;;;;;19.20;10.90;;;;;;;0.77;77.36;96224.38;5013727;28;20068;-50
2020/12/20 01:19:57;;;;;;;18.67;11.27;;;;;;;0.85;76.37;96207.88;5013910;28;20046;-54
2020/12/20 01:22:23;;;;;;;17.00;10.70;;;;;;;0.98;76.23;96223.38;5017598;28;20100;-51
2020/12/20 01:24:49;;;;;;;20.98;11.38;;;;;;;0.87;75.74;96229.72;5030429;28;20106;-53
2020/12/20 01:27:19;;;;;;;16.55;10.48;;;;;;;0.88;76.38;96215.34;5028513;28;20092;-54
2020/12/20 01:29:45;;;;;;;17.00;10.55;;;;;;;0.90;76.37;96224.66;5028306;28;20053;-55
2020/12/20 01:32:16;;;;;;;15.85;10.32;;;;;;;1.09;75.71;96222.31;5013552;28;20058;-56
2020/12/20 01:34:44;;;;;;;16.42;10.93;;;;;;;0.93;76.12;96220.69;5013645;28;20453;-58
2020/12/20 01:37:12;;;;;;;20.67;12.05;;;;;;;0.75;76.38;96216.66;5013366;28;20084;-58
2020/12/20 01:39:46;;;;;;;19.75;11.48;;;;;;;0.74;76.30;96220.38;5013253;28;20140;-58
2020/12/20 01:42:15;;;;;;;18.77;11.88;;;;;;;0.78;76.62;96217.97;5013404;28;20057;-58
2020/12/20 01:44:42;;;;;;;18.85;11.93;;;;;;;0.82;76.56;96213.75;5013221;28;20072;-58
2020/12/20 01:47:09;;;;;;;19.08;12.20;;;;;;;0.95;76.07;96215.91;5012918;28;20112;-56
2020/12/20 01:49:38;;;;;;;18.75;11.90;;;;;;;0.94;76.26;96208.94;5012743;28;20447;-57
2020/12/20 01:52:06;;;;;;;18.90;10.82;;;;;;;1.13;75.51;96212.72;5012793;28;20054;-59
2020/12/20 01:54:33;;;;;;;15.95;10.38;;;;;;;1.13;75.38;96207.38;5014125;28;20128;-58
2020/12/20 01:57:08;;;;;;;17.95;11.52;;;;;;;1.10;75.43;96213.25;5013787;28;20723;-54
2020/12/20 02:00:01;;;;;;;16.58;10.40;;;;;;;1.22;74.83;96212.19;5013644;28;20141;-58
2020/12/20 02:02:40;;;;;;;15.10;9.77;;;;;;;1.21;74.83;96200.75;5014134;28;20076;-55
2020/12/20 02:05:08;;;;;;;18.65;10.02;;;;;;;1.08;75.01;96199.41;5032263;22;20041;-54
2020/12/20 02:07:34;;;;;;;18.58;11.95;;;;;;;1.05;75.18;96199.13;5011475;28;20046;-55
2020/12/20 02:10:02;;;;;;;15.82;10.10;;;;;;;1.08;75.21;96188.75;5012210;28;20076;-54
2020/12/20 02:12:29;;;;;;;15.88;10.20;;;;;;;1.21;74.77;96186.63;4995223;28;20404;-55
2020/12/20 02:15:14;;;;;;;17.45;11.40;;;;;;;1.22;75.10;96177.56;5012199;28;20050;-55
2020/12/20 02:17:41;;;;;;;18.13;10.77;;;;;;;1.12;75.10;96179.13;5011818;28;20097;-57
2020/12/20 02:20:19;;;;;;;16.35;10.20;;;;;;;0.95;75.18;96167.94;5012275;28;20060;-53
2020/12/20 02:23:13;;;;;;;15.48;9.73;;;;;;;1.17;74.60;96192.47;5010912;28;20053;-57
2020/12/20 02:25:51;;;;;;;15.07;10.05;;;;;;;1.02;74.43;96173.00;5011222;28;20046;-52
2020/12/20 02:28:23;;;;;;;16.40;10.48;;;;;;;1.07;74.33;96184.47;4995677;28;20120;-54
2020/12/20 02:31:03;;;;;;;15.27;9.80;;;;;;;0.89;75.29;96174.31;5011735;28;20060;-55
2020/12/20 02:33:30;;;;;;;18.15;11.15;;;;;;;0.78;75.42;96167.38;5011976;28;20540;-54
2020/12/20 02:35:58;;;;;;;15.93;9.88;;;;;;;0.66;76.03;96163.09;5010818;28;20046;-57
2020/12/20 02:38:26;;;;;;;17.75;10.93;;;;;;;0.77;75.72;96173.78;5011441;28;20061;-55
2020/12/20 02:41:09;;;;;;;16.70;10.68;;;;;;;0.92;75.44;96171.13;5011379;28;20050;-55
2020/12/20 02:43:37;;;;;;;19.17;11.45;;;;;;;1.00;75.15;96178.59;5011163;28;20042;-55
2020/12/20 02:46:08;;;;;;;17.23;11.38;;;;;;;0.98;75.28;96182.59;5010712;28;20073;-57
2020/12/20 02:48:38;;;;;;;16.35;10.50;;;;;;;0.95;75.24;96165.28;5011491;28;20598;-57
2020/12/20 02:51:05;;;;;;;20.73;12.88;;;;;;;1.14;74.94;96171.69;5011335;28;20052;-52
2020/12/20 02:53:33;;;;;;;18.67;11.60;;;;;;;1.05;75.12;96167.94;5011047;28;20049;-55
2020/12/20 02:56:00;;;;;;;16.38;10.68;;;;;;;1.10;74.88;96164.47;5010367;28;20561;-54
2020/12/20 02:58:26;;;;;;;17.73;11.68;;;;;;;1.10;74.56;96167.13;5012644;28;20064;-55
2020/12/20 03:01:04;;;;;;;19.35;11.35;;;;;;;1.05;74.71;96173.28;5012141;28;20065;-53
2020/12/20 03:03:30;;;;;;;16.23;10.85;;;;;;;1.04;74.76;96163.69;5010345;28;20053;-58
2020/12/20 03:05:57;;;;;;;17.35;11.02;;;;;;;0.91;74.83;96161.53;5010186;28;20177;-55
2020/12/20 03:08:24;;;;;;;19.10;11.65;;;;;;;0.88;75.27;96154.88;5012332;28;20450;-55
2020/12/20 03:10:51;;;;;;;18.33;11.20;;;;;;;0.91;75.09;96151.69;5010896;28;20050;-55
2020/12/20 03:13:18;;;;;;;17.40;11.18;;;;;;;0.82;75.25;96153.28;5011346;28;20065;-55
2020/12/20 03:15:49;;;;;;;17.90;10.75;;;;;;;0.70;75.70;96150.06;5010041;28;20077;-55
2020/12/20 03:18:18;;;;;;;18.52;11.40;;;;;;;0.79;75.58;96172.44;5011979;28;20132;-54
2020/12/20 03:20:57;;;;;;;17.08;10.85;;;;;;;0.95;74.95;96170.59;5010816;28;20060;-54
2020/12/20 03:23:26;;;;;;;19.67;12.90;;;;;;;0.99;74.85;96170.88;5010964;28;20415;-54
2020/12/20 03:26:27;;;;;;;16.70;10.30;;;;;;;0.94;74.34;96155.66;5010347;28;20045;-56
2020/12/20 03:29:14;;;;;;;18.73;10.90;;;;;;;0.95;75.00;96162.63;5010523;28;20050;-53
2020/12/20 03:32:06;;;;;;;15.52;10.52;;;;;;;0.85;74.82;96144.75;5009695;28;20228;-53
2020/12/20 03:34:43;;;;;;;18.98;10.98;;;;;;;1.13;74.21;96167.41;5010618;28;20503;-53
2020/12/20 03:37:21;;;;;;;15.32;10.05;;;;;;;1.13;74.09;96167.41;5009955;28;20133;-58
2020/12/20 03:39:59;;;;;;;17.42;10.63;;;;;;;1.12;74.14;96157.03;5010509;28;20574;-57
2020/12/20 03:42:29;;;;;;;18.52;11.50;;;;;;;1.12;74.08;96160.50;5010630;28;20252;-54
2020/12/20 03:44:55;;;;;;;16.15;10.63;;;;;;;1.05;74.40;96156.50;5010314;28;20088;-57
2020/12/20 03:47:23;;;;;;;16.38;10.50;;;;;;;1.21;73.89;96158.09;5009851;28;20104;-56
2020/12/20 03:49:49;;;;;;;17.38;11.32;;;;;;;1.13;73.93;96150.63;5010569;28;20420;-54
2020/12/20 03:52:17;;;;;;;17.33;10.18;;;;;;;1.03;74.25;96143.44;5010189;28;20056;-56
2020/12/20 03:54:54;;;;;;;18.48;11.00;;;;;;;1.13;74.12;96151.41;5010584;28;20074;-55
2020/12/20 03:57:22;;;;;;;17.25;10.63;;;;;;;1.06;74.23;96152.75;5010551;28;20197;-56
2020/12/20 03:59:49;;;;;;;16.92;10.60;;;;;;;1.15;74.08;96149.28;5010721;28;20049;-56
2020/12/20 04:02:17;;;;;;;17.13;10.77;;;;;;;1.05;74.03;96146.63;5010670;28;20068;-56
2020/12/20 04:04:43;;;;;;;16.38;10.60;;;;;;;0.88;74.28;96151.44;5011526;28;20042;-58
2020/12/20 04:07:10;;;;;;;15.73;10.10;;;;;;;0.80;74.70;96165.25;5009634;28;20046;-59
2020/12/20 04:09:43;;;;;;;16.00;10.02;;;;;;;0.79;74.73;96158.34;5010353;28;20045;-56
2020/12/20 04:12:18;;;;;;;16.10;10.27;;;;;;;0.93;74.30;96170.84;5010551;28;20137;-53
2020/12/20 04:14:47;;;;;;;17.33;10.88;;;;;;;0.95;74.14;96159.94;5011976;28;20076;-55
2020/12/20 04:17:13;;;;;;;15.85;9.98;;;;;;;1.04;74.20;96170.88;5011584;28;20411;-54
2020/12/20 04:19:40;;;;;;;16.50;10.73;;;;;;;1.02;74.15;96165.03;5011590;28;20507;-56
2020/12/20 04:22:20;;;;;;;14.90;9.68;;;;;;;1.00;73.74;96165.28;5009969;28;20061;-56
2020/12/20 04:25:10;;;;;;;15.73;10.05;;;;;;;1.02;74.06;96173.00;5010668;28;20050;-57
2020/12/20 04:27:56;;;;;;;15.68;10.45;;;;;;;1.25;73.19;96169.03;5011222;28;20073;-55
2020/12/20 04:30:24;;;;;;;16.08;10.68;;;;;;;1.20;73.36;96166.34;5009851;28;20104;-57
2020/12/20 04:32:51;;;;;;;16.73;10.93;;;;;;;1.17;73.54;96168.50;5010066;28;20491;-57
2020/12/20 04:35:18;;;;;;;15.95;10.07;;;;;;;1.06;73.59;96144.75;4993109;28;20073;-59
2020/12/20 04:37:44;;;;;;;15.85;9.75;;;;;;;1.15;73.76;96167.16;5010059;28;20042;-56
2020/12/20 04:40:27;;;;;;;17.37;11.17;;;;;;;1.13;73.62;96163.94;5009802;28;20046;-57
2020/12/20 04:43:03;;;;;;;17.05;10.88;;;;;;;1.18;73.71;96161.28;5009937;28;20057;-56
2020/12/20 04:45:31;;;;;;;15.75;10.02;;;;;;;0.99;74.13;96152.22;5008922;28;20116;-51
2020/12/20 04:47:58;;;;;;;19.30;11.05;;;;;;;1.15;73.74;96149.28;5009830;28;20046;-55
2020/12/20 04:50:29;;;;;;;17.50;11.35;;;;;;;1.15;73.88;96151.16;5010079;28;20050;-55
2020/12/20 04:52:58;;;;;;;17.30;11.05;;;;;;;1.05;74.20;96149.31;5009572;28;20454;-52
2020/12/20 04:55:46;;;;;;;18.63;11.48;;;;;;;0.99;74.11;96157.56;5009934;28;20076;-54
2020/12/20 04:58:22;;;;;;;16.83;10.75;;;;;;;1.04;74.06;96155.69;5009704;28;20049;-55
2020/12/20 05:00:49;;;;;;;16.05;10.40;;;;;;;1.21;73.68;96167.97;5009592;28;20057;-55
2020/12/20 05:03:19;;;;;;;18.80;11.30;;;;;;;0.78;73.68;96117.59;5009403;28;20092;-54
2020/12/20 05:05:51;;;;;;;18.80;11.32;;;;;;;0.94;73.78;96145.00;5008692;28;20112;-54
2020/12/20 05:08:20;;;;;;;19.00;11.13;;;;;;;0.89;74.33;96150.34;5009586;28;20092;-57
2020/12/20 05:10:50;;;;;;;18.83;10.88;;;;;;;0.81;74.94;96154.31;5009694;28;20054;-55
2020/12/20 05:13:17;;;;;;;16.73;10.85;;;;;;;0.83;74.83;96159.41;5009470;28;20080;-54
2020/12/20 05:15:44;;;;;;;17.48;11.02;;;;;;;0.78;75.06;96154.06;5009964;28;20077;-52
2020/12/20 05:18:21;;;;;;;19.67;11.77;;;;;;;0.92;74.75;96160.47;5009562;28;20467;-56
2020/12/20 05:20:58;;;;;;;16.73;10.63;;;;;;;0.85;74.89;96171.41;5009478;28;20056;-55
2020/12/20 05:23:30;;;;;;;18.00;10.90;;;;;;;0.75;75.15;96158.06;5010549;28;20076;-55
2020/12/20 05:26:23;;;;;;;17.73;10.88;;;;;;;0.90;74.69;96158.06;5011949;28;20050;-56
2020/12/20 05:28:50;;;;;;;18.77;11.40;;;;;;;0.96;74.40;96155.41;5013144;28;20120;-54
2020/12/20 05:31:17;;;;;;;17.40;10.70;;;;;;;0.92;74.66;96160.47;5012697;28;20141;-54
2020/12/20 05:34:04;;;;;;;17.27;11.30;;;;;;;0.84;74.78;96163.66;5012817;28;20521;-53
2020/12/20 05:36:38;;;;;;;16.15;10.13;;;;;;;0.79;75.05;96156.47;5011938;28;20056;-55
2020/12/20 05:39:37;;;;;;;16.73;9.95;;;;;;;0.87;74.91;96166.59;5013962;28;20053;-52
2020/12/20 05:42:14;;;;;;;17.55;10.65;;;;;;;0.81;75.21;96156.19;5012617;28;20053;-55
2020/12/20 05:44:41;;;;;;;18.63;10.43;;;;;;;0.86;74.98;96153.53;5012325;28;20065;-52
2020/12/20 05:47:22;;;;;;;18.25;10.40;;;;;;;0.89;74.84;96159.13;5011984;28;20056;-53
2020/12/20 05:49:48;;;;;;;15.15;9.65;;;;;;;0.78;75.05;96156.72;5012498;28;20525;-52
2020/12/20 05:52:29;;;;;;;19.73;10.32;;;;;;;0.57;75.08;96155.88;5012582;28;20125;-54
2020/12/20 05:54:55;;;;;;;16.17;10.02;;;;;;;0.73;75.00;96160.19;5013490;28;20541;-57
2020/12/20 05:57:23;;;;;;;16.55;10.73;;;;;;;0.76;75.24;96153.53;5012804;28;20045;-53
2020/12/20 05:59:51;;;;;;;16.60;10.63;;;;;;;0.91;74.82;96162.34;5013595;28;20510;-54
2020/12/20 06:02:19;;;;;;;15.57;9.95;;;;;;;0.88;74.78;96162.09;5013797;28;20448;-57
2020/12/20 06:04:47;;;;;;;17.83;11.02;;;;;;;0.73;74.91;96143.41;5013514;28;20057;-56
2020/12/20 06:07:15;;;;;;;17.48;10.20;;;;;;;0.73;74.96;96165.50;5012647;28;20053;-53
2020/12/20 06:09:54;;;;;;;16.10;9.43;;;;;;;0.70;75.37;96156.19;5013239;28;20058;-54
2020/12/20 06:12:24;;;;;;;15.93;10.23;;;;;;;0.85;74.91;96158.06;5011967;28;20056;-54
2020/12/20 06:14:52;;;;;;;17.50;10.27;;;;;;;1.02;74.54;96157.03;5013431;28;20079;-54
2020/12/20 06:17:21;;;;;;;16.85;10.05;;;;;;;1.03;74.17;96155.94;5012605;28;20056;-56
2020/12/20 06:19:52;;;;;;;16.95;10.27;;;;;;;0.89;74.37;96164.47;5012029;28;20133;-55
2020/12/20 06:22:21;;;;;;;16.80;10.27;;;;;;;0.83;74.83;96160.19;5012920;28;20077;-53
2020/12/20 06:24:50;;;;;;;18.02;10.68;;;;;;;0.68;75.31;96152.16;5012959;28;20125;-54
2020/12/20 06:27:18;;;;;;;18.27;11.13;;;;;;;0.84;74.86;96161.00;5012174;28;20108;-58
2020/12/20 06:29:48;;;;;;;16.85;9.73;;;;;;;0.88;75.04;96170.06;5012962;28;20064;-53
2020/12/20 06:32:45;;;;;;;16.25;10.35;;;;;;;1.08;74.51;96163.97;5013010;28;20110;-55
2020/12/20 06:35:28;;;;;;;14.65;9.77;;;;;;;1.00;74.28;96157.28;5009244;28;20046;-55
2020/12/20 06:37:56;;;;;;;17.25;10.55;;;;;;;0.94;74.56;96158.34;5013057;28;20050;-56
2020/12/20 06:40:40;;;;;;;16.65;10.20;;;;;;;0.88;74.95;96152.22;5012754;28;20112;-57
2020/12/20 06:43:10;;;;;;;16.83;9.77;;;;;;;0.83;75.02;96159.41;5012597;28;20058;-55
2020/12/20 06:45:45;;;;;;;16.50;9.75;;;;;;;0.89;75.20;96153.81;5012377;28;20100;-58
2020/12/20 06:48:13;;;;;;;14.88;9.20;;;;;;;0.89;74.89;96153.00;5012538;28;20140;-55
2020/12/20 06:50:44;;;;;;;18.10;9.85;;;;;;;0.73;75.48;96157.53;5012519;28;20128;-57
2020/12/20 06:53:13;;;;;;;16.10;9.98;;;;;;;0.68;75.00;96152.16;5012564;28;20052;-52
2020/12/20 06:55:40;;;;;;;14.48;8.93;;;;;;;0.53;75.60;96149.50;5011562;28;20440;-53
2020/12/20 06:58:17;;;;;;;16.55;9.80;;;;;;;0.43;76.03;96153.72;5012572;28;20140;-52
2020/12/20 07:00:52;;;;;;;17.00;10.00;;;;;;;0.23;77.15;96165.09;5012361;28;20058;-53
2020/12/20 07:03:24;;;;;;;16.23;9.82;;;;;;;0.31;76.85;96160.34;5012521;28;20057;-57
2020/12/20 07:05:52;;;;;;;15.57;9.65;;;;;;;0.28;76.88;96158.19;5011329;28;20062;-52
2020/12/20 07:08:22;;;;;;;16.70;9.88;;;;;;;0.44;76.39;96155.31;5012140;28;20174;-57
2020/12/20 07:10:55;;;;;;;16.58;9.85;;;;;;;0.36;76.33;96158.50;5012554;28;20054;-55
2020/12/20 07:13:31;;;;;;;;;;;;;;;0.43;76.18;96163.56;5012742;28;20057;-56
2020/12/20 07:16:43;;;;;;;15.00;9.25;;;;;;;0.31;76.57;96147.03;5011849;28;20350;-52
2020/12/20 07:19:15;;;;;;;15.27;9.55;;;;;;;0.45;76.15;96153.44;5003700;28;20534;-55
2020/12/20 07:21:41;;;;;;;16.05;9.95;;;;;;;0.39;76.24;96157.16;5010929;28;20057;-55
2020/12/20 07:24:17;;;;;;;16.33;9.75;;;;;;;0.31;76.46;96160.34;5011880;28;20049;-53
2020/12/20 07:26:46;;;;;;;17.02;10.27;;;;;;;0.20;76.64;96160.31;5011181;28;20050;-55
2020/12/20 07:29:13;;;;;;;16.42;10.05;;;;;;;0.27;76.87;96161.94;5010875;28;20386;-56
2020/12/20 07:31:49;;;;;;;16.35;10.00;;;;;;;0.41;76.59;96168.34;5010692;28;20073;-57
2020/12/20 07:34:15;;;;;;;15.73;9.35;;;;;;;0.51;76.15;96163.06;5012102;28;20139;-57
2020/12/20 07:36:42;;;;;;;14.57;9.18;;;;;;;0.52;76.00;96159.34;5011282;28;20132;-57
2020/12/20 07:39:10;;;;;;;15.25;9.60;;;;;;;0.63;75.52;96158.28;5011755;28;20137;-57
2020/12/20 07:41:36;;;;;;;14.93;9.52;;;;;;;0.73;75.17;96159.38;5011838;28;20085;-56
2020/12/20 07:44:05;;;;;;;16.63;9.73;;;;;;;0.66;75.25;96144.47;5011554;28;20053;-57
2020/12/20 07:46:36;;;;;;;15.75;9.63;;;;;;;0.81;74.99;96172.16;5010137;28;20054;-57
2020/12/20 07:49:07;;;;;;;15.45;9.63;;;;;;;0.70;74.83;96164.16;5011095;28;20495;-58
2020/12/20 07:51:35;;;;;;;14.65;9.35;;;;;;;0.73;74.52;96162.03;5012033;28;20053;-58
2020/12/20 07:54:05;;;;;;;14.60;9.18;;;;;;;0.50;75.13;96161.47;5011664;28;20049;-54
2020/12/20 07:56:34;;;;;;;13.15;8.25;;;;;;;0.43;75.59;96174.22;5011244;28;20057;-55
2020/12/20 07:59:04;;;;;;;13.40;8.80;;;;;;;0.37;75.90;96167.28;5011557;28;20495;-55
2020/12/20 08:01:32;;;;;;;16.08;10.32;;;;;;;0.49;75.24;96175.03;5011745;28;20054;-56
2020/12/20 08:04:09;;;;;;;15.10;9.10;;;;;;;0.38;75.91;96171.53;5011238;28;20132;-58
2020/12/20 08:06:38;;;;;;;15.55;9.40;;;;;;;0.48;75.60;96168.91;5048718;23;20166;-59
2020/12/20 08:09:13;;;;;;;14.73;8.88;;;;;;;0.70;75.32;96168.69;5031372;28;20495;-62
2020/12/20 08:11:41;;;;;;;14.73;9.40;;;;;;;0.75;74.83;96168.72;5031504;28;20068;-62
2020/12/20 08:14:13;;;;;;;14.73;9.68;;;;;;;0.73;75.14;96178.81;5031911;28;20233;-60
2020/12/20 08:16:42;;;;;;;14.30;9.20;;;;;;;0.76;75.07;96169.50;5030891;28;20053;-60
2020/12/20 08:19:15;;;;;;;14.80;8.95;;;;;;;0.87;74.83;96177.25;5031381;28;20049;-61
2020/12/20 08:21:42;;;;;;;16.13;9.98;;;;;;;0.94;74.43;96171.66;5031594;28;20387;-61
2020/12/20 08:24:13;;;;;;;15.60;9.48;;;;;;;1.19;73.75;96172.75;5031869;28;20081;-60
2020/12/20 08:26:41;;;;;;;13.32;8.65;;;;;;;1.29;72.36;96167.41;5031131;28;20479;-60
2020/12/20 08:29:12;;;;;;;14.32;8.65;;;;;;;1.23;72.84;96176.47;5031226;28;20578;-61
2020/12/20 08:31:43;;;;;;;14.07;8.93;;;;;;;1.28;73.00;96177.28;5031251;28;20160;-60
2020/12/20 08:34:15;;;;;;;14.15;8.55;;;;;;;1.30;73.26;96175.16;5030835;28;20053;-59
2020/12/20 08:36:47;;;;;;;13.10;8.02;;;;;;;1.31;72.73;96175.97;5030401;28;20084;-60
2020/12/20 08:39:14;;;;;;;15.30;8.77;;;;;;;1.26;72.67;96175.94;5031130;28;20100;-60
2020/12/20 08:41:41;;;;;;;13.40;9.10;;;;;;;1.34;72.26;96167.44;5031477;28;20052;-60
2020/12/20 08:44:10;;;;;;;13.70;8.48;;;;;;;1.22;72.51;96172.22;5029821;28;20138;-60
2020/12/20 08:46:40;;;;;;;14.35;8.57;;;;;;;1.33;72.10;96168.47;5030212;28;20045;-60
2020/12/20 08:49:14;;;;;;;15.77;9.52;;;;;;;1.32;72.21;96172.22;5031559;28;20534;-61
2020/12/20 08:51:45;;;;;;;12.20;8.38;;;;;;;1.39;72.42;96162.06;5031110;28;20049;-61
2020/12/20 08:54:27;;;;;;;12.77;8.52;;;;;;;1.53;71.88;96167.69;5031101;28;20045;-60
2020/12/20 08:56:56;;;;;;;14.55;8.68;;;;;;;1.40;72.43;96174.34;5030471;28;20061;-61
2020/12/20 08:59:26;;;;;;;13.52;8.50;;;;;;;1.54;72.19;96180.72;5031419;28;20045;-61
2020/12/20 09:01:52;;;;;;;13.13;8.35;;;;;;;1.55;71.48;96171.66;5034348;28;20081;-61
2020/12/20 09:04:19;;;;;;;13.85;8.88;;;;;;;1.68;71.00;96186.31;5034849;28;20050;-59
2020/12/20 09:06:58;;;;;;;11.88;7.90;;;;;;;1.70;71.26;96178.06;5032705;28;20053;-60
2020/12/20 09:09:25;;;;;;;12.02;8.32;;;;;;;1.58;71.21;96181.00;5035025;28;20183;-60
2020/12/20 09:11:52;;;;;;;12.68;8.77;;;;;;;1.36;71.88;96178.59;5033449;28;20063;-60
2020/12/20 09:14:18;;;;;;;14.18;8.75;;;;;;;1.30;72.43;96169.00;5034556;28;20553;-60
2020/12/20 09:16:45;;;;;;;14.77;9.02;;;;;;;1.35;72.09;96172.47;5033623;28;20083;-60
2020/12/20 09:19:12;;;;;;;14.38;9.18;;;;;;;1.40;72.90;96175.16;5034379;28;20126;-60
2020/12/20 09:21:40;;;;;;;14.07;8.95;;;;;;;1.44;72.56;96178.09;5034454;28;20088;-56
2020/12/20 09:24:06;;;;;;;13.80;8.70;;;;;;;1.08;72.69;96186.06;5034172;28;20451;-56
2020/12/20 09:26:32;;;;;;;12.68;8.40;;;;;;;1.19;73.61;96189.53;5033564;28;20127;-53
2020/12/20 09:29:06;;;;;;;13.50;8.82;;;;;;;0.83;74.39;96197.47;5034340;28;20076;-61
2020/12/20 09:31:32;;;;;;;14.32;9.07;;;;;;;0.82;74.93;96187.91;5034338;28;20601;-60
2020/12/20 09:34:02;;;;;;;14.75;9.05;;;;;;;0.98;74.77;96194.06;5033443;28;20065;-60
2020/12/20 09:36:29;;;;;;;14.68;8.80;;;;;;;1.20;73.92;96180.47;5032109;28;20809;-61
2020/12/20 09:39:01;;;;;;;12.85;8.63;;;;;;;1.08;73.55;96183.41;5034238;28;20087;-60
2020/12/20 09:41:29;;;;;;;14.30;8.80;;;;;;;1.04;73.89;96184.19;5034081;28;20088;-61
2020/12/20 09:43:55;;;;;;;14.68;8.80;;;;;;;1.06;74.08;96182.06;5033843;28;20095;-61
2020/12/20 09:46:33;;;;;;;14.98;8.75;;;;;;;1.14;74.43;96189.56;5033369;28;20080;-61
2020/12/20 09:49:00;;;;;;;15.10;8.65;;;;;;;0.93;75.28;96194.84;5034066;28;20413;-63
2020/12/20 09:51:27;;;;;;;15.10;9.75;;;;;;;0.91;75.70;96194.31;5029652;28;20136;-60
2020/12/20 09:53:54;;;;;;;14.10;8.88;;;;;;;1.09;75.25;96200.19;5027133;28;20053;-61
2020/12/20 09:56:20;;;;;;;15.85;9.70;;;;;;;1.12;74.72;96210.31;5044889;28;20046;-60
2020/12/20 09:58:47;;;;;;;14.50;9.15;;;;;;;1.40;73.71;96209.03;5033463;28;20088;-61
2020/12/20 10:01:27;;;;;;;14.40;8.93;;;;;;;1.70;72.63;96210.06;5044725;28;20053;-62
2020/12/20 10:03:54;;;;;;;14.82;8.38;;;;;;;1.82;71.44;96207.88;5053964;28;20464;-61
2020/12/20 10:06:20;;;;;;;14.15;9.50;;;;;;;1.88;71.37;96220.16;5052709;28;20460;-62
2020/12/20 10:08:46;;;;;;;12.07;7.68;;;;;;;1.98;70.76;96209.50;5051733;28;20106;-62
2020/12/20 10:11:17;;;;;;;14.95;8.75;;;;;;;1.81;69.95;96201.75;5033025;28;20081;-60
2020/12/20 10:13:44;;;;;;;15.18;10.13;;;;;;;1.35;72.39;96201.00;5033545;28;20172;-61
2020/12/20 10:16:16;;;;;;;12.88;8.63;;;;;;;1.31;73.78;96191.94;5032812;28;20056;-60
2020/12/20 10:18:42;;;;;;;14.48;9.55;;;;;;;1.54;73.47;96190.59;5032738;28;20083;-61
2020/12/20 10:21:12;;;;;;;13.40;9.10;;;;;;;1.59;73.67;96188.75;5042356;28;20049;-61
2020/12/20 10:23:40;;;;;;;15.13;9.82;;;;;;;1.53;73.02;96194.34;5053407;28;20096;-61
2020/12/20 10:26:10;;;;;;;14.48;9.02;;;;;;;1.32;73.69;96198.88;5051125;28;20049;-54
2020/12/20 10:28:37;;;;;;;16.60;10.63;;;;;;;1.14;74.68;96192.22;5049114;28;20448;-52
2020/12/20 10:31:04;;;;;;;15.25;9.60;;;;;;;1.41;73.71;96197.28;5032205;28;20437;-57
2020/12/20 10:33:31;;;;;;;14.52;9.05;;;;;;;1.38;73.80;96198.59;5039371;28;20128;-55
2020/12/20 10:35:57;;;;;;;15.55;9.15;;;;;;;1.61;73.12;96199.94;5052264;28;20049;-54
2020/12/20 10:38:24;;;;;;;14.45;9.30;;;;;;;1.83;72.14;96212.19;5051935;28;20107;-59
2020/12/20 10:40:50;;;;;;;12.40;8.48;;;;;;;1.89;71.49;96207.66;5052056;28;20052;-53
2020/12/20 10:43:17;;;;;;;14.25;8.85;;;;;;;1.90;71.48;96211.91;5053510;28;20102;-58
2020/12/20 10:45:44;;;;;;;15.38;9.90;;;;;;;1.97;71.53;96197.19;5045898;28;20053;-55
2020/12/20 10:48:10;;;;;;;14.60;10.40;;;;;;;1.96;72.01;96187.59;5033108;28;20072;-56
2020/12/20 10:50:37;;;;;;;15.65;9.98;;;;;;;1.83;72.19;96190.84;5032785;28;20053;-56
2020/12/20 10:53:03;;;;;;;15.27;10.05;;;;;;;1.55;73.26;96189.53;5032652;28;20060;-56
2020/12/20 10:55:36;;;;;;;14.87;9.50;;;;;;;1.15;74.57;96183.16;5031891;28;20064;-52
2020/12/20 10:58:02;;;;;;;15.43;9.52;;;;;;;1.19;75.68;96175.41;5032723;28;20286;-56
2020/12/20 11:00:29;;;;;;;14.48;9.05;;;;;;;1.41;75.20;96173.28;5032638;28;20400;-57
2020/12/20 11:02:55;;;;;;;16.63;10.38;;;;;;;1.62;73.56;96164.19;5031438;28;20133;-53
2020/12/20 11:05:26;;;;;;;13.48;9.18;;;;;;;1.87;73.09;96174.00;5031502;28;20073;-55
2020/12/20 11:07:53;;;;;;;15.90;9.82;;;;;;;1.95;73.23;96170.00;5032185;28;20053;-58
2020/12/20 11:10:19;;;;;;;14.95;9.48;;;;;;;1.64;73.45;96187.94;5031366;28;20107;-55
2020/12/20 11:12:46;;;;;;;15.68;10.10;;;;;;;1.84;73.10;96184.41;5032572;28;20076;-61
2020/12/20 11:15:12;;;;;;;15.82;9.98;;;;;;;1.94;72.41;96179.06;5032277;28;20562;-61
2020/12/20 11:17:39;;;;;;;14.13;8.98;;;;;;;2.14;71.64;96193.41;5030650;28;20053;-58
2020/12/20 11:20:05;;;;;;;15.95;9.60;;;;;;;2.20;71.35;96192.34;5033436;28;20123;-57
2020/12/20 11:22:32;;;;;;;14.38;9.20;;;;;;;2.31;71.04;96199.25;5042803;28;20414;-61
2020/12/20 11:24:58;;;;;;;13.50;9.45;;;;;;;2.47;70.53;96197.28;5031714;28;20053;-54
2020/12/20 11:27:26;;;;;;;13.27;9.18;;;;;;;2.50;70.72;96186.06;5031452;28;20073;-61
2020/12/20 11:29:53;;;;;;;12.98;8.63;;;;;;;2.58;70.11;96183.63;5027662;28;20049;-57
2020/12/20 11:32:20;;;;;;;13.45;8.95;;;;;;;2.73;69.71;96182.75;5031893;28;20059;-57
2020/12/20 11:34:53;;;;;;;13.65;8.88;;;;;;;2.81;69.67;96178.72;5031084;28;20124;-58
2020/12/20 11:37:19;;;;;;;13.95;9.40;;;;;;;2.77;69.62;96177.66;5011371;28;20491;-59
2020/12/20 11:39:46;;;;;;;15.25;9.38;;;;;;;2.97;69.22;96174.88;5011921;28;20046;-54
2020/12/20 11:42:12;;;;;;;13.50;9.18;;;;;;;2.83;70.17;96183.75;5012257;28;20045;-57
2020/12/20 11:44:38;;;;;;;14.52;9.32;;;;;;;2.68;71.02;96173.97;5011880;28;20123;-56